sensor_id;sensor_type;location;lat;lon;timestamp;pressure;altitude;pressure_sealevel;temperature;humidity
50696;BME280;36665;51.786;21.594;2023-01-29T00:08:04;91256.60;;;-1.73;79.45
50696;BME280;36665;51.786;21.594;2023-01-29T00:16:27;91247.34;;;-1.76;79.43
50696;BME280;36665;51.786;21.594;2023-01-29T00:24:50;91236.73;;;-1.79;79.42
50696;BME280;36665;51.786;21.594;2023-01-29T00:33:13;91214.36;;;-1.85;79.43
50696;BME280;36665;51.786;21.594;2023-01-29T00:41:37;91195.12;;;-1.91;79.17
50696;BME280;36665;51.786;21.594;2023-01-29T00:50:18;91179.81;;;-1.95;79.15
50696;BME280;36665;51.786;21.594;2023-01-29T00:58:41;91148.34;;;-2.04;79.25
50696;BME280;36665;51.786;21.594;2023-01-29T01:07:05;91134.00;;;-2.07;79.08
50696;BME280;36665;51.786;21.594;2023-01-29T01:15:34;91107.39;;;-2.14;78.93
50696;BME280;36665;51.786;21.594;2023-01-29T01:23:58;91100.98;;;-2.17;79.12
50696;BME280;36665;51.786;21.594;2023-01-29T01:32:22;91077.02;;;-2.23;78.95
50696;BME280;36665;51.786;21.594;2023-01-29T01:40:45;91041.13;;;-2.33;78.77
50696;BME280;36665;51.786;21.594;2023-01-29T01:49:15;91036.68;;;-2.34;78.75
50696;BME280;36665;51.786;21.594;2023-01-29T01:57:42;91017.79;;;-2.38;78.68
50696;BME280;36665;51.786;21.594;2023-01-29T02:06:09;91012.77;;;-2.40;78.65
50696;BME280;36665;51.786;21.594;2023-01-29T02:14:51;91001.59;;;-2.43;78.82
50696;BME280;36665;51.786;21.594;2023-01-29T02:32:30;91004.92;;;-2.42;78.68
50696;BME280;36665;51.786;21.594;2023-01-29T02:49:37;90986.48;;;-2.47;78.70
50696;BME280;36665;51.786;21.594;2023-01-29T02:58:31;90989.92;;;-2.47;78.70
50696;BME280;36665;51.786;21.594;2023-01-29T03:07:04;90973.83;;;-2.50;78.67
50696;BME280;36665;51.786;21.594;2023-01-29T03:15:38;90969.14;;;-2.51;78.69
50696;BME280;36665;51.786;21.594;2023-01-29T03:24:54;90973.00;;;-2.51;78.75
50696;BME280;36665;51.786;21.594;2023-01-29T03:51:22;91000.57;;;-2.42;78.57
50696;BME280;36665;51.786;21.594;2023-01-29T04:09:11;90999.95;;;-2.43;78.43
50696;BME280;36665;51.786;21.594;2023-01-29T04:17:41;90979.00;;;-2.48;78.43
50696;BME280;36665;51.786;21.594;2023-01-29T04:35:16;90971.56;;;-2.50;78.40
50696;BME280;36665;51.786;21.594;2023-01-29T05:01:26;90942.67;;;-2.58;78.39
50696;BME280;36665;51.786;21.594;2023-01-29T05:09:52;90947.67;;;-2.56;78.24
50696;BME280;36665;51.786;21.594;2023-01-29T05:18:16;90949.08;;;-2.55;78.32
50696;BME280;36665;51.786;21.594;2023-01-29T05:26:40;90934.22;;;-2.59;78.15
50696;BME280;36665;51.786;21.594;2023-01-29T05:35:24;90920.02;;;-2.64;78.08
50696;BME280;36665;51.786;21.594;2023-01-29T05:43:50;90929.20;;;-2.61;78.30
50696;BME280;36665;51.786;21.594;2023-01-29T05:52:13;90947.11;;;-2.56;78.37
50696;BME280;36665;51.786;21.594;2023-01-29T06:00:40;90944.07;;;-2.56;78.17
50696;BME280;36665;51.786;21.594;2023-01-29T06:09:03;90938.70;;;-2.58;78.22
50696;BME280;36665;51.786;21.594;2023-01-29T06:17:26;90926.73;;;-2.62;78.21
50696;BME280;36665;51.786;21.594;2023-01-29T06:25:49;90945.93;;;-2.56;78.35
50696;BME280;36665;51.786;21.594;2023-01-29T06:34:12;90966.93;;;-2.50;78.38
50696;BME280;36665;51.786;21.594;2023-01-29T06:42:35;90968.80;;;-2.50;78.44
50696;BME280;36665;51.786;21.594;2023-01-29T06:51:06;90994.59;;;-2.43;78.41
50696;BME280;36665;51.786;21.594;2023-01-29T06:59:29;91016.53;;;-2.37;78.36
50696;BME280;36665;51.786;21.594;2023-01-29T07:07:52;91016.85;;;-2.37;78.32
50696;BME280;36665;51.786;21.594;2023-01-29T07:16:15;91023.82;;;-2.35;78.39
50696;BME280;36665;51.786;21.594;2023-01-29T07:24:38;91067.40;;;-2.23;78.54
50696;BME280;36665;51.786;21.594;2023-01-29T07:33:06;91109.61;;;-2.10;78.40
50696;BME280;36665;51.786;21.594;2023-01-29T07:41:29;91118.38;;;-2.08;78.39
50696;BME280;36665;51.786;21.594;2023-01-29T07:49:55;91146.60;;;-2.00;78.27
50696;BME280;36665;51.786;21.594;2023-01-29T07:58:18;91192.55;;;-1.87;78.54
50696;BME280;36665;51.786;21.594;2023-01-29T08:06:41;91235.04;;;-1.75;78.41
50696;BME280;36665;51.786;21.594;2023-01-29T08:15:04;91296.44;;;-1.58;78.52
50696;BME280;36665;51.786;21.594;2023-01-29T08:23:27;91357.72;;;-1.42;78.49
50696;BME280;36665;51.786;21.594;2023-01-29T08:31:51;91387.44;;;-1.34;78.61
50696;BME280;36665;51.786;21.594;2023-01-29T08:40:15;91437.58;;;-1.20;78.62
50696;BME280;36665;51.786;21.594;2023-01-29T08:48:43;91455.34;;;-1.15;78.46
50696;BME280;36665;51.786;21.594;2023-01-29T08:57:07;91448.71;;;-1.17;78.50
50696;BME280;36665;51.786;21.594;2023-01-29T09:05:29;91485.48;;;-1.06;78.71
50696;BME280;36665;51.786;21.594;2023-01-29T09:13:52;91515.30;;;-0.99;78.56
50696;BME280;36665;51.786;21.594;2023-01-29T09:22:15;91528.84;;;-0.94;78.53
50696;BME280;36665;51.786;21.594;2023-01-29T09:30:38;91562.20;;;-0.85;78.52
50696;BME280;36665;51.786;21.594;2023-01-29T09:39:02;91579.17;;;-0.81;78.51
50696;BME280;36665;51.786;21.594;2023-01-29T09:47:27;91619.54;;;-0.69;78.61
50696;BME280;36665;51.786;21.594;2023-01-29T09:55:58;91672.08;;;-0.54;78.75
50696;BME280;36665;51.786;21.594;2023-01-29T10:13:19;91700.20;;;-0.47;78.51
50696;BME280;36665;51.786;21.594;2023-01-29T10:38:52;91780.92;;;-0.25;78.59
50696;BME280;36665;51.786;21.594;2023-01-29T10:56:00;91834.46;;;-0.11;78.76
50696;BME280;36665;51.786;21.594;2023-01-29T11:04:39;91833.88;;;-0.11;78.79
50696;BME280;36665;51.786;21.594;2023-01-29T11:13:04;91863.64;;;-0.02;78.69
50696;BME280;36665;51.786;21.594;2023-01-29T11:21:29;91921.55;;;0.13;78.47
50696;BME280;36665;51.786;21.594;2023-01-29T11:29:52;91923.27;;;0.13;78.43
50696;BME280;36665;51.786;21.594;2023-01-29T11:46:40;91856.46;;;-0.05;78.57
50696;BME280;36665;51.786;21.594;2023-01-29T11:55:22;91863.10;;;-0.03;78.27
50696;BME280;36665;51.786;21.594;2023-01-29T12:03:51;91875.88;;;0.00;78.49
50696;BME280;36665;51.786;21.594;2023-01-29T12:12:34;91846.15;;;-0.07;78.27
50696;BME280;36665;51.786;21.594;2023-01-29T12:21:03;91804.36;;;-0.19;78.14
50696;BME280;36665;51.786;21.594;2023-01-29T12:38:18;91826.83;;;-0.12;78.14
50696;BME280;36665;51.786;21.594;2023-01-29T12:46:47;91821.06;;;-0.14;78.16
50696;BME280;36665;51.786;21.594;2023-01-29T12:55:19;91837.67;;;-0.10;78.32
50696;BME280;36665;51.786;21.594;2023-01-29T13:13:06;91802.70;;;-0.19;78.30
50696;BME280;36665;51.786;21.594;2023-01-29T13:21:41;91776.23;;;-0.27;78.22
50696;BME280;36665;51.786;21.594;2023-01-29T13:30:06;91740.80;;;-0.37;78.06
50696;BME280;36665;51.786;21.594;2023-01-29T13:38:39;91736.66;;;-0.38;78.10
50696;BME280;36665;51.786;21.594;2023-01-29T13:47:10;91728.13;;;-0.39;78.11
50696;BME280;36665;51.786;21.594;2023-01-29T13:55:42;91706.59;;;-0.45;78.04
50696;BME280;36665;51.786;21.594;2023-01-29T14:21:33;91665.16;;;-0.57;78.17
50696;BME280;36665;51.786;21.594;2023-01-29T14:38:35;91646.19;;;-0.63;78.21
50696;BME280;36665;51.786;21.594;2023-01-29T14:46:59;91632.27;;;-0.67;78.11
50696;BME280;36665;51.786;21.594;2023-01-29T15:04:15;91570.15;;;-0.84;78.09
50696;BME280;36665;51.786;21.594;2023-01-29T15:21:14;91566.36;;;-0.85;78.14
50696;BME280;36665;51.786;21.594;2023-01-29T15:29:38;91548.88;;;-0.89;77.99
50696;BME280;36665;51.786;21.594;2023-01-29T15:46:38;91520.54;;;-0.97;78.38
50696;BME280;36665;51.786;21.594;2023-01-29T15:55:04;91521.16;;;-0.97;78.33
50696;BME280;36665;51.786;21.594;2023-01-29T16:03:31;91494.63;;;-1.04;78.38
50696;BME280;36665;51.786;21.594;2023-01-29T16:11:57;91464.45;;;-1.13;78.35
50696;BME280;36665;51.786;21.594;2023-01-29T16:20:43;91473.45;;;-1.10;78.48
50696;BME280;36665;51.786;21.594;2023-01-29T16:29:10;91512.96;;;-0.99;78.30
50696;BME280;36665;51.786;21.594;2023-01-29T16:37:34;91521.91;;;-0.97;78.43
50696;BME280;36665;51.786;21.594;2023-01-29T16:46:09;91499.96;;;-1.03;78.25
50696;BME280;36665;51.786;21.594;2023-01-29T16:54:41;91506.39;;;-1.01;78.59
50696;BME280;36665;51.786;21.594;2023-01-29T17:03:05;91522.27;;;-0.97;78.52
50696;BME280;36665;51.786;21.594;2023-01-29T17:19:55;91491.89;;;-1.05;78.53
50696;BME280;36665;51.786;21.594;2023-01-29T17:28:18;91499.85;;;-1.04;78.67
50696;BME280;36665;51.786;21.594;2023-01-29T17:36:42;91495.25;;;-1.05;78.58
50696;BME280;36665;51.786;21.594;2023-01-29T17:45:06;91468.10;;;-1.13;78.66
50696;BME280;36665;51.786;21.594;2023-01-29T17:53:29;91458.34;;;-1.14;78.72
50696;BME280;36665;51.786;21.594;2023-01-29T18:02:07;91482.91;;;-1.09;78.75
50696;BME280;36665;51.786;21.594;2023-01-29T18:10:50;91479.45;;;-1.09;78.70
50696;BME280;36665;51.786;21.594;2023-01-29T18:19:21;91464.99;;;-1.14;78.65
50696;BME280;36665;51.786;21.594;2023-01-29T18:27:44;91479.38;;;-1.10;78.78
50696;BME280;36665;51.786;21.594;2023-01-29T18:36:07;91475.44;;;-1.12;78.93
50696;BME280;36665;51.786;21.594;2023-01-29T18:44:30;91461.60;;;-1.15;78.93
50696;BME280;36665;51.786;21.594;2023-01-29T18:52:53;91470.00;;;-1.13;78.95
50696;BME280;36665;51.786;21.594;2023-01-29T19:01:18;91495.05;;;-1.06;78.86
50696;BME280;36665;51.786;21.594;2023-01-29T19:09:41;91492.98;;;-1.07;78.94
50696;BME280;36665;51.786;21.594;2023-01-29T19:18:08;91465.85;;;-1.14;78.90
50696;BME280;36665;51.786;21.594;2023-01-29T19:26:35;91469.58;;;-1.14;78.97
50696;BME280;36665;51.786;21.594;2023-01-29T19:34:58;91493.34;;;-1.07;79.02
50696;BME280;36665;51.786;21.594;2023-01-29T19:43:21;91497.71;;;-1.05;79.06
50696;BME280;36665;51.786;21.594;2023-01-29T19:51:44;91492.42;;;-1.07;79.19
50696;BME280;36665;51.786;21.594;2023-01-29T20:00:07;91501.63;;;-1.05;79.23
50696;BME280;36665;51.786;21.594;2023-01-29T20:08:33;91508.15;;;-1.03;79.13
50696;BME280;36665;51.786;21.594;2023-01-29T20:16:56;91486.66;;;-1.09;79.42
50696;BME280;36665;51.786;21.594;2023-01-29T20:25:19;91479.88;;;-1.11;79.32
50696;BME280;36665;51.786;21.594;2023-01-29T20:33:42;91486.89;;;-1.10;79.25
50696;BME280;36665;51.786;21.594;2023-01-29T20:42:05;91478.30;;;-1.12;79.41
50696;BME280;36665;51.786;21.594;2023-01-29T20:50:28;91465.52;;;-1.15;79.24
50696;BME280;36665;51.786;21.594;2023-01-29T20:58:51;91474.90;;;-1.13;79.23
50696;BME280;36665;51.786;21.594;2023-01-29T21:07:14;91481.99;;;-1.11;79.33
50696;BME280;36665;51.786;21.594;2023-01-29T21:15:37;91479.05;;;-1.12;79.36
50696;BME280;36665;51.786;21.594;2023-01-29T21:24:00;91485.45;;;-1.11;79.26
50696;BME280;36665;51.786;21.594;2023-01-29T21:32:23;91503.64;;;-1.05;79.56
50696;BME280;36665;51.786;21.594;2023-01-29T21:40:46;91508.96;;;-1.04;79.48
50696;BME280;36665;51.786;21.594;2023-01-29T21:49:09;91513.38;;;-1.02;79.57
50696;BME280;36665;51.786;21.594;2023-01-29T21:57:32;91535.27;;;-0.97;79.49
50696;BME280;36665;51.786;21.594;2023-01-29T22:05:55;91527.77;;;-0.99;79.44
50696;BME280;36665;51.786;21.594;2023-01-29T22:14:17;91503.64;;;-1.05;79.52
50696;BME280;36665;51.786;21.594;2023-01-29T22:22:41;91501.41;;;-1.06;79.63
50696;BME280;36665;51.786;21.594;2023-01-29T22:31:04;91526.10;;;-1.00;79.46
50696;BME280;36665;51.786;21.594;2023-01-29T22:39:27;91524.75;;;-1.00;79.69
50696;BME280;36665;51.786;21.594;2023-01-29T22:47:50;91520.16;;;-1.00;79.62
50696;BME280;36665;51.786;21.594;2023-01-29T22:56:13;91544.70;;;-0.95;79.70
50696;BME280;36665;51.786;21.594;2023-01-29T23:04:38;91546.14;;;-0.94;79.77
50696;BME280;36665;51.786;21.594;2023-01-29T23:13:03;91524.61;;;-0.99;79.49
50696;BME280;36665;51.786;21.594;2023-01-29T23:21:28;91529.39;;;-1.00;79.76
50696;BME280;36665;51.786;21.594;2023-01-29T23:29:51;91540.69;;;-0.96;79.64
50696;BME280;36665;51.786;21.594;2023-01-29T23:38:14;91529.62;;;-0.99;79.73
50696;BME280;36665;51.786;21.594;2023-01-29T23:46:37;91539.58;;;-0.96;79.56
50696;BME280;36665;51.786;21.594;2023-01-29T23:55:00;91554.44;;;-0.92;79.77
